Time;durP1;ratioP1;P1;durP2;ratioP2;P2;SDS_P1;SDS_P2;PMS_P1;PMS_P2;Temp;Humidity;BMP_temperature;BMP_pressure;BME280_temperature;BME280_humidity;BME280_pressure;Samples;Min_cycle;Max_cycle;Signal;HPM_P1;HPM_P2
2023/08/01 00:00:05;;;;;;;4.13;3.80;;;16.60;99.90;;;;;;5005666;28;20516;-61
2023/08/01 00:02:33;;;;;;;4.97;4.57;;;16.60;99.90;;;;;;5007410;28;20468;-62
2023/08/01 00:05:01;;;;;;;4.53;4.20;;;16.70;99.90;;;;;;5008701;28;20522;-62
2023/08/01 00:07:29;;;;;;;3.77;3.47;;;16.70;99.90;;;;;;5007622;28;20555;-62
2023/08/01 00:09:57;;;;;;;3.43;3.13;;;16.70;99.90;;;;;;4999943;28;20488;-62
2023/08/01 00:12:26;;;;;;;3.10;2.90;;;16.70;99.90;;;;;;5007671;28;20587;-62
2023/08/01 00:14:55;;;;;;;2.60;2.40;;;16.60;99.90;;;;;;5008433;28;20521;-62
2023/08/01 00:17:23;;;;;;;2.73;2.53;;;16.50;99.90;;;;;;5006549;28;20578;-62
2023/08/01 00:19:51;;;;;;;3.10;2.90;;;16.50;99.90;;;;;;5007485;28;20542;-62
2023/08/01 00:22:19;;;;;;;2.80;2.23;;;16.50;99.90;;;;;;5006972;28;20508;-62
2023/08/01 00:24:47;;;;;;;2.87;2.70;;;16.50;99.90;;;;;;5006076;28;20496;-62
2023/08/01 00:27:15;;;;;;;3.03;2.60;;;16.40;99.90;;;;;;5008712;28;20559;-62
2023/08/01 00:29:43;;;;;;;3.20;2.90;;;16.40;99.90;;;;;;5007823;28;20542;-62
2023/08/01 00:32:12;;;;;;;2.67;2.50;;;16.40;99.90;;;;;;5007125;28;20491;-62
2023/08/01 00:34:40;;;;;;;2.77;2.60;;;16.30;99.90;;;;;;5005994;28;20482;-62
2023/08/01 00:37:08;;;;;;;3.40;3.10;;;16.30;99.90;;;;;;5007826;28;20551;-62
2023/08/01 00:39:36;;;;;;;3.60;3.30;;;16.30;99.90;;;;;;5007281;28;20945;-62
2023/08/01 00:42:04;;;;;;;3.20;2.87;;;16.30;99.90;;;;;;5008516;28;20483;-62
2023/08/01 00:44:32;;;;;;;2.90;2.70;;;16.30;99.90;;;;;;5011049;28;20555;-62
2023/08/01 00:47:00;;;;;;;3.60;2.50;;;16.30;99.90;;;;;;5010368;28;20755;-62
2023/08/01 00:49:30;;;;;;;2.87;2.63;;;16.30;99.90;;;;;;5009924;28;20598;-62
2023/08/01 00:52:00;;;;;;;2.40;2.20;;;16.30;99.90;;;;;;5010737;28;20487;-62
2023/08/01 00:54:30;;;;;;;2.63;2.43;;;16.20;99.90;;;;;;5011225;28;20533;-62
2023/08/01 00:56:58;;;;;;;2.60;2.50;;;16.20;99.90;;;;;;5011616;28;20551;-62
2023/08/01 00:59:26;;;;;;;2.43;2.23;;;16.20;99.90;;;;;;5009461;28;20488;-61
2023/08/01 01:01:54;;;;;;;2.80;2.60;;;16.20;99.90;;;;;;5027865;28;20468;-62
2023/08/01 01:04:22;;;;;;;2.60;2.40;;;16.10;99.90;;;;;;5021445;28;21040;-62
2023/08/01 01:06:58;;;;;;;2.80;2.60;;;16.10;99.90;;;;;;5010514;28;21053;-62
2023/08/01 01:09:31;;;;;;;2.57;2.37;;;16.10;99.90;;;;;;5010461;28;20558;-62
2023/08/01 01:12:00;;;;;;;2.97;2.73;;;16.10;99.90;;;;;;5010715;28;20557;-62
2023/08/01 01:14:28;;;;;;;2.90;2.70;;;16.10;99.90;;;;;;5009781;28;20564;-62
2023/08/01 01:16:56;;;;;;;2.97;2.77;;;16.00;99.90;;;;;;5010864;28;20473;-62
2023/08/01 01:19:24;;;;;;;3.17;2.87;;;16.00;99.90;;;;;;5009853;28;21023;-62
2023/08/01 01:21:53;;;;;;;3.20;3.00;;;16.00;99.90;;;;;;5009452;28;20476;-62
2023/08/01 01:24:23;;;;;;;3.20;2.93;;;16.00;99.90;;;;;;5009423;28;20472;-62
2023/08/01 01:26:52;;;;;;;3.90;3.60;;;16.00;99.90;;;;;;5010595;28;20464;-62
2023/08/01 01:29:21;;;;;;;4.37;4.07;;;16.00;99.90;;;;;;5010005;28;20520;-61
2023/08/01 01:31:51;;;;;;;4.30;3.90;;;16.00;99.90;;;;;;5008429;28;21035;-64
2023/08/01 01:34:19;;;;;;;4.70;4.40;;;16.00;99.90;;;;;;5010891;28;20476;-62
2023/08/01 01:36:47;;;;;;;3.80;3.50;;;16.00;99.90;;;;;;5010730;28;20476;-62
2023/08/01 01:39:16;;;;;;;4.07;3.77;;;16.10;99.90;;;;;;5010269;28;20563;-62
2023/08/01 01:41:45;;;;;;;4.70;4.40;;;16.10;99.90;;;;;;5008167;28;21086;-62
2023/08/01 01:44:13;;;;;;;5.10;4.70;;;16.10;99.90;;;;;;5009193;28;20464;-62
2023/08/01 01:46:41;;;;;;;5.20;4.80;;;16.10;99.90;;;;;;5009388;28;20676;-62
2023/08/01 01:49:10;;;;;;;5.70;5.30;;;16.10;99.90;;;;;;5008316;28;20507;-61
2023/08/01 01:51:38;;;;;;;5.67;5.17;;;16.10;99.90;;;;;;5008988;28;20473;-62
2023/08/01 01:54:06;;;;;;;5.40;4.90;;;16.10;99.90;;;;;;5010092;28;20983;-62
2023/08/01 01:56:35;;;;;;;5.77;5.37;;;16.10;99.90;;;;;;5010413;28;20476;-62
2023/08/01 01:59:03;;;;;;;5.67;5.20;;;16.00;99.90;;;;;;5007981;28;20472;-62
2023/08/01 02:01:31;;;;;;;5.70;5.17;;;16.00;99.90;;;;;;5009155;28;21005;-61
2023/08/01 02:03:59;;;;;;;6.77;6.23;;;16.00;99.90;;;;;;5010039;28;20551;-62
2023/08/01 02:06:27;;;;;;;6.00;5.50;;;16.00;99.90;;;;;;5010274;28;20858;-62
2023/08/01 02:08:56;;;;;;;6.10;5.60;;;16.10;99.90;;;;;;5008266;28;20596;-62
2023/08/01 02:11:24;;;;;;;7.03;6.43;;;16.10;99.90;;;;;;5009610;28;20524;-61
2023/08/01 02:13:54;;;;;;;5.87;5.47;;;16.10;99.90;;;;;;5009233;28;20484;-62
2023/08/01 02:16:22;;;;;;;7.20;6.50;;;16.10;99.90;;;;;;5006553;28;21167;-62
2023/08/01 02:18:50;;;;;;;6.37;5.77;;;16.10;99.90;;;;;;5009081;28;20472;-61
2023/08/01 02:21:18;;;;;;;7.20;6.60;;;16.10;99.90;;;;;;5008825;28;20578;-62
2023/08/01 02:23:46;;;;;;;7.50;6.90;;;16.10;99.90;;;;;;5007943;28;20492;-62
2023/08/01 02:26:14;;;;;;;7.60;7.00;;;16.10;99.90;;;;;;5009953;28;20495;-62
2023/08/01 02:28:42;;;;;;;7.80;7.10;;;16.10;99.90;;;;;;5008646;28;20488;-62
2023/08/01 02:31:12;;;;;;;6.37;5.87;;;16.10;99.90;;;;;;5007149;28;20528;-62
2023/08/01 02:33:40;;;;;;;8.30;7.40;;;16.10;99.90;;;;;;5008317;28;20978;-62
2023/08/01 02:36:08;;;;;;;8.07;7.37;;;16.20;99.90;;;;;;5009474;28;21150;-62
2023/08/01 02:38:36;;;;;;;9.60;8.80;;;16.20;99.90;;;;;;5009156;28;20475;-62
2023/08/01 02:41:04;;;;;;;9.23;8.43;;;16.20;99.90;;;;;;4999851;28;20591;-62
2023/08/01 02:43:32;;;;;;;9.07;8.23;;;16.20;99.90;;;;;;5003288;28;20550;-61
2023/08/01 02:46:01;;;;;;;9.10;8.30;;;16.20;99.90;;;;;;5003429;28;20552;-62
2023/08/01 02:48:30;;;;;;;8.60;7.80;;;16.20;99.90;;;;;;5003464;28;20530;-62
2023/08/01 02:50:58;;;;;;;8.17;7.53;;;16.20;99.90;;;;;;5002731;28;20544;-62
2023/08/01 02:53:26;;;;;;;9.77;8.60;;;16.20;99.90;;;;;;4996273;28;20527;-65
2023/08/01 02:55:54;;;;;;;9.67;8.87;;;16.30;99.90;;;;;;5001565;28;20508;-62
2023/08/01 02:58:22;;;;;;;9.57;8.60;;;16.30;99.90;;;;;;5002473;28;20486;-62
2023/08/01 03:00:50;;;;;;;10.83;8.37;;;16.30;99.90;;;;;;5001460;28;20503;-63
2023/08/01 03:03:18;;;;;;;9.50;8.67;;;16.30;99.90;;;;;;4999034;28;20571;-62
2023/08/01 03:05:48;;;;;;;9.40;8.70;;;16.30;99.90;;;;;;4998242;28;20487;-62
2023/08/01 03:08:16;;;;;;;10.87;9.90;;;16.30;99.90;;;;;;5000178;28;20500;-61
2023/08/01 03:10:44;;;;;;;10.13;9.23;;;16.30;99.90;;;;;;5000784;28;20484;-62
2023/08/01 03:13:12;;;;;;;10.33;9.43;;;16.30;99.90;;;;;;5000765;28;21051;-62
2023/08/01 03:15:40;;;;;;;10.73;9.63;;;16.30;99.90;;;;;;5002805;28;20472;-62
2023/08/01 03:18:08;;;;;;;10.40;9.37;;;16.30;99.90;;;;;;4999309;28;20472;-62
2023/08/01 03:20:36;;;;;;;11.03;10.03;;;16.40;99.90;;;;;;4999673;28;20808;-61
2023/08/01 03:23:06;;;;;;;11.20;10.20;;;16.40;99.90;;;;;;4999809;28;20488;-61
2023/08/01 03:25:34;;;;;;;10.63;9.60;;;16.40;99.90;;;;;;5000238;28;20563;-62
2023/08/01 03:28:02;;;;;;;12.00;10.90;;;16.40;99.90;;;;;;5000341;28;20555;-62
2023/08/01 03:30:32;;;;;;;11.67;10.57;;;16.40;99.90;;;;;;4999309;28;20511;-62
2023/08/01 03:33:02;;;;;;;12.67;11.40;;;16.40;99.90;;;;;;5000930;28;20582;-62
2023/08/01 03:35:30;;;;;;;12.40;11.10;;;16.30;99.90;;;;;;5017651;28;20491;-62
2023/08/01 03:37:58;;;;;;;12.53;10.90;;;16.30;99.90;;;;;;5013080;28;21019;-62
2023/08/01 03:40:28;;;;;;;12.20;11.00;;;16.30;99.90;;;;;;5000446;28;20612;-62
2023/08/01 03:42:56;;;;;;;12.90;11.70;;;16.30;99.90;;;;;;4998930;28;20481;-62
2023/08/01 03:45:24;;;;;;;12.10;10.90;;;16.30;99.90;;;;;;5000138;28;20505;-61
2023/08/01 03:47:52;;;;;;;12.93;11.10;;;16.30;99.90;;;;;;5000638;28;20473;-62
2023/08/01 03:50:20;;;;;;;12.10;10.90;;;16.30;99.90;;;;;;4998606;28;20914;-62
2023/08/01 03:52:48;;;;;;;12.10;10.90;;;16.40;99.90;;;;;;5000953;28;20575;-62
2023/08/01 03:55:17;;;;;;;13.57;12.17;;;16.40;99.90;;;;;;5000097;28;20542;-62
2023/08/01 03:57:46;;;;;;;11.83;10.77;;;16.40;99.90;;;;;;4999562;28;20563;-62
2023/08/01 04:00:14;;;;;;;11.70;10.53;;;16.40;99.90;;;;;;4999248;28;20538;-62
2023/08/01 04:02:42;;;;;;;13.17;11.00;;;16.40;99.90;;;;;;4997126;28;20587;-62
2023/08/01 04:05:15;;;;;;;12.03;11.03;;;16.40;99.90;;;;;;5002743;28;20977;-62
2023/08/01 04:07:43;;;;;;;11.40;10.40;;;16.40;99.90;;;;;;5003559;28;20478;-62
2023/08/01 04:10:11;;;;;;;13.23;11.93;;;16.40;99.90;;;;;;5002590;28;20519;-62
2023/08/01 04:12:39;;;;;;;12.63;11.43;;;16.40;99.90;;;;;;5000338;28;21177;-62
2023/08/01 04:15:09;;;;;;;12.03;10.80;;;16.40;99.90;;;;;;5005475;28;20551;-62
2023/08/01 04:17:37;;;;;;;12.37;10.60;;;16.40;99.90;;;;;;5004582;28;20980;-61
2023/08/01 04:20:07;;;;;;;11.30;10.30;;;16.40;99.90;;;;;;5004713;28;20500;-62
2023/08/01 04:22:35;;;;;;;11.70;10.60;;;16.40;99.90;;;;;;5001981;28;21094;-62
2023/08/01 04:25:03;;;;;;;12.73;11.10;;;16.40;99.90;;;;;;5002652;28;20525;-62
2023/08/01 04:27:31;;;;;;;11.70;10.70;;;16.30;99.90;;;;;;5007400;28;20478;-62
2023/08/01 04:29:59;;;;;;;12.03;10.87;;;16.30;99.90;;;;;;5006040;28;20570;-62
2023/08/01 04:32:29;;;;;;;12.30;11.10;;;16.40;99.90;;;;;;5003724;28;20493;-62
2023/08/01 04:34:57;;;;;;;12.17;10.97;;;16.40;99.90;;;;;;5001056;28;20475;-61
2023/08/01 04:37:26;;;;;;;10.63;9.73;;;16.40;99.90;;;;;;5005337;28;20682;-61
2023/08/01 04:39:54;;;;;;;11.00;10.03;;;16.40;99.90;;;;;;5003248;28;20551;-61
2023/08/01 04:42:22;;;;;;;10.80;9.73;;;16.40;99.90;;;;;;5003143;28;20581;-61
2023/08/01 04:44:49;;;;;;;11.03;9.93;;;16.50;99.90;;;;;;5004086;28;20518;-61
2023/08/01 04:47:17;;;;;;;11.20;10.00;;;16.40;99.90;;;;;;5003557;28;20472;-61
2023/08/01 04:49:47;;;;;;;12.63;10.67;;;16.40;99.90;;;;;;5000027;28;20488;-61
2023/08/01 04:52:15;;;;;;;11.87;10.77;;;16.40;99.90;;;;;;5002743;28;20491;-61
2023/08/01 04:54:43;;;;;;;12.43;11.33;;;16.50;99.90;;;;;;5002512;28;20486;-61
2023/08/01 04:57:11;;;;;;;11.80;10.60;;;16.40;99.90;;;;;;5003792;28;20554;-61
2023/08/01 04:59:39;;;;;;;11.53;10.20;;;16.40;99.90;;;;;;5001636;28;20606;-62
2023/08/01 05:02:07;;;;;;;11.97;10.77;;;16.40;99.90;;;;;;5000383;28;20873;-61
2023/08/01 05:04:35;;;;;;;12.63;11.17;;;16.40;99.90;;;;;;5002916;28;20476;-61
2023/08/01 05:07:05;;;;;;;13.13;10.40;;;16.40;99.90;;;;;;5003999;28;21033;-61
2023/08/01 05:09:34;;;;;;;11.50;10.30;;;16.40;99.90;;;;;;5002627;28;21071;-61
2023/08/01 05:12:01;;;;;;;11.13;10.00;;;16.40;99.90;;;;;;5000846;28;20495;-62
2023/08/01 05:14:29;;;;;;;12.03;10.60;;;16.40;99.90;;;;;;5001664;28;20472;-62
2023/08/01 05:16:57;;;;;;;11.07;10.17;;;16.50;99.90;;;;;;5000513;28;21077;-62
2023/08/01 05:19:25;;;;;;;11.53;10.03;;;16.50;99.90;;;;;;5003683;28;20852;-62
2023/08/01 05:21:55;;;;;;;11.17;9.90;;;16.50;99.90;;;;;;5002086;28;21295;-61
2023/08/01 05:24:24;;;;;;;10.80;9.80;;;16.50;99.90;;;;;;5003075;28;20468;-61
2023/08/01 05:26:52;;;;;;;10.43;9.53;;;16.60;99.90;;;;;;5001490;28;20552;-63
2023/08/01 05:29:20;;;;;;;10.40;8.60;;;16.60;99.90;;;;;;5002085;28;20512;-61
2023/08/01 05:31:48;;;;;;;11.10;10.07;;;16.60;99.90;;;;;;5001050;28;20558;-62
2023/08/01 05:34:16;;;;;;;12.63;9.70;;;16.60;99.90;;;;;;5004713;28;20526;-61
2023/08/01 05:36:44;;;;;;;11.07;9.93;;;16.60;99.90;;;;;;5001679;28;20507;-61
2023/08/01 05:39:12;;;;;;;10.57;9.57;;;16.60;99.90;;;;;;4999185;28;20961;-61
2023/08/01 05:41:41;;;;;;;10.77;9.83;;;16.60;99.90;;;;;;5001119;28;20893;-62
2023/08/01 05:44:09;;;;;;;10.90;9.80;;;16.60;99.90;;;;;;5001911;28;20476;-61
2023/08/01 05:46:37;;;;;;;10.27;9.27;;;16.60;99.90;;;;;;5004210;28;20514;-62
2023/08/01 05:49:06;;;;;;;9.90;8.90;;;16.60;99.90;;;;;;5002149;28;20460;-61
2023/08/01 05:51:34;;;;;;;11.03;9.90;;;16.60;99.90;;;;;;4999371;28;20488;-61
2023/08/01 05:54:01;;;;;;;11.00;9.90;;;16.60;99.90;;;;;;5002415;28;20544;-61
2023/08/01 05:56:30;;;;;;;10.83;9.70;;;16.70;99.90;;;;;;5002622;28;20656;-61
2023/08/01 05:58:59;;;;;;;11.17;10.17;;;16.70;99.90;;;;;;5000923;28;20480;-61
2023/08/01 06:01:27;;;;;;;10.57;9.37;;;16.70;99.90;;;;;;5000491;28;20553;-61
2023/08/01 06:03:55;;;;;;;10.20;8.80;;;16.70;99.90;;;;;;4997909;28;20515;-62
2023/08/01 06:06:24;;;;;;;9.90;8.20;;;16.70;99.90;;;;;;5003728;28;20552;-62
2023/08/01 06:08:52;;;;;;;9.60;8.80;;;16.80;99.90;;;;;;5006737;28;20468;-61
2023/08/01 06:11:20;;;;;;;9.93;9.10;;;16.80;99.90;;;;;;5021224;28;20492;-61
2023/08/01 06:13:48;;;;;;;9.47;8.57;;;16.80;99.90;;;;;;5006195;28;20492;-61
2023/08/01 06:16:17;;;;;;;9.17;8.17;;;16.80;99.90;;;;;;5000750;28;20515;-62
2023/08/01 06:18:47;;;;;;;9.23;8.40;;;16.80;99.90;;;;;;5001719;28;20475;-63
2023/08/01 06:21:15;;;;;;;10.43;8.73;;;16.80;99.90;;;;;;5007110;28;20480;-62
2023/08/01 06:23:42;;;;;;;10.00;9.03;;;16.90;99.90;;;;;;5014915;28;21887;-61
2023/08/01 06:26:10;;;;;;;11.37;8.57;;;16.90;99.90;;;;;;5015233;28;20547;-61
2023/08/01 06:28:38;;;;;;;7.90;7.20;;;17.00;99.90;;;;;;5013340;28;20600;-61
2023/08/01 06:31:06;;;;;;;8.33;7.30;;;17.00;99.90;;;;;;5010273;28;21160;-66
2023/08/01 06:33:36;;;;;;;9.70;8.70;;;17.00;99.90;;;;;;5005245;28;21184;-61
2023/08/01 06:36:04;;;;;;;8.40;7.60;;;17.00;99.90;;;;;;5000517;28;20559;-62
2023/08/01 06:38:32;;;;;;;9.30;8.33;;;17.00;99.90;;;;;;4999871;28;21040;-62
2023/08/01 06:41:00;;;;;;;9.03;8.23;;;17.10;99.90;;;;;;5001975;28;20584;-62
2023/08/01 06:43:28;;;;;;;9.50;8.63;;;17.10;99.90;;;;;;5004311;28;20611;-62
2023/08/01 06:45:56;;;;;;;7.50;6.80;;;17.10;99.90;;;;;;4998578;28;20563;-61
2023/08/01 06:48:24;;;;;;;7.63;6.93;;;17.10;99.90;;;;;;4998043;28;20653;-61
2023/08/01 06:50:54;;;;;;;7.87;7.17;;;17.10;99.90;;;;;;5000053;28;21108;-62
2023/08/01 06:53:22;;;;;;;6.97;6.00;;;17.10;99.90;;;;;;4999498;28;20490;-61
2023/08/01 06:55:50;;;;;;;6.87;6.20;;;17.10;99.90;;;;;;5001686;28;20558;-61
2023/08/01 06:58:18;;;;;;;6.33;5.80;;;17.00;99.90;;;;;;5001934;28;21007;-61
2023/08/01 07:00:46;;;;;;;6.80;6.27;;;16.90;99.90;;;;;;4997831;28;20579;-62
2023/08/01 07:03:14;;;;;;;7.43;6.40;;;17.00;99.90;;;;;;5000459;28;20974;-61
2023/08/01 07:05:42;;;;;;;5.87;5.33;;;17.00;99.90;;;;;;4999556;28;20956;-62
2023/08/01 07:08:11;;;;;;;8.57;6.00;;;17.00;99.90;;;;;;4999781;28;20937;-61
2023/08/01 07:10:39;;;;;;;6.80;6.17;;;16.90;99.90;;;;;;4997109;28;20524;-62
2023/08/01 07:13:07;;;;;;;5.50;5.00;;;16.90;99.90;;;;;;4995999;28;20488;-61
2023/08/01 07:15:35;;;;;;;6.57;5.30;;;16.90;99.90;;;;;;5001676;28;21061;-62
2023/08/01 07:18:03;;;;;;;6.17;4.80;;;17.00;99.90;;;;;;5002274;28;20472;-62
2023/08/01 07:20:32;;;;;;;6.10;5.50;;;17.00;99.90;;;;;;5000655;28;20908;-61
2023/08/01 07:22:59;;;;;;;4.90;4.40;;;17.00;99.90;;;;;;4999073;28;20528;-61
2023/08/01 07:25:29;;;;;;;5.63;4.67;;;17.10;99.90;;;;;;4996164;28;20979;-61
2023/08/01 07:27:57;;;;;;;5.03;4.53;;;17.20;99.90;;;;;;4999675;28;20556;-62
2023/08/01 07:30:25;;;;;;;5.40;4.90;;;17.20;99.90;;;;;;4998920;28;20484;-61
2023/08/01 07:32:53;;;;;;;6.27;4.37;;;17.20;99.90;;;;;;4999678;28;20490;-61
2023/08/01 07:35:21;;;;;;;6.20;4.63;;;17.20;99.90;;;;;;4997121;28;20878;-61
2023/08/01 07:37:49;;;;;;;6.70;5.23;;;17.20;99.90;;;;;;4997365;28;20556;-62
2023/08/01 07:40:17;;;;;;;9.80;4.80;;;17.20;99.90;;;;;;4999166;28;20542;-62
2023/08/01 07:42:47;;;;;;;5.30;4.70;;;17.10;99.90;;;;;;4997890;28;20933;-61
2023/08/01 07:45:15;;;;;;;5.27;4.30;;;17.10;99.90;;;;;;4998314;28;20491;-62
2023/08/01 07:47:43;;;;;;;4.67;4.10;;;17.20;99.90;;;;;;4999563;28;21064;-62
2023/08/01 07:50:11;;;;;;;6.77;4.60;;;17.30;99.90;;;;;;5002923;28;20491;-61
2023/08/01 07:52:39;;;;;;;4.33;4.00;;;17.40;99.90;;;;;;5002350;28;20508;-61
2023/08/01 07:55:08;;;;;;;5.03;4.43;;;17.50;99.90;;;;;;5005138;28;20943;-62
2023/08/01 07:57:36;;;;;;;4.83;4.37;;;17.60;99.90;;;;;;5005695;28;21119;-61
2023/08/01 08:00:07;;;;;;;5.17;4.67;;;17.60;99.90;;;;;;5004429;28;21297;-61
2023/08/01 08:02:35;;;;;;;7.63;4.23;;;17.60;99.90;;;;;;5002113;28;20593;-62
2023/08/01 08:05:03;;;;;;;5.30;4.80;;;17.60;99.90;;;;;;5003298;28;20515;-61
2023/08/01 08:07:31;;;;;;;6.03;4.50;;;17.70;99.90;;;;;;5003668;28;20559;-61
2023/08/01 08:09:59;;;;;;;4.67;4.27;;;17.80;99.90;;;;;;5004595;28;20500;-61
2023/08/01 08:12:27;;;;;;;6.40;4.10;;;17.90;99.90;;;;;;5003981;28;20864;-62
2023/08/01 08:14:55;;;;;;;4.73;4.33;;;18.00;99.90;;;;;;5002565;28;20474;-61
2023/08/01 08:17:25;;;;;;;5.10;4.23;;;18.00;99.90;;;;;;5002237;28;20555;-61
2023/08/01 08:19:53;;;;;;;7.13;4.30;;;18.10;99.90;;;;;;5003504;28;20833;-61
2023/08/01 08:22:21;;;;;;;5.80;4.50;;;18.10;99.90;;;;;;5003805;28;20603;-61
2023/08/01 08:24:49;;;;;;;6.97;4.77;;;18.10;99.90;;;;;;5003727;28;20554;-62
2023/08/01 08:27:17;;;;;;;6.50;4.33;;;18.10;99.90;;;;;;5002359;28;20825;-61
2023/08/01 08:29:45;;;;;;;4.90;4.13;;;18.10;99.90;;;;;;5002281;28;20614;-62
2023/08/01 08:32:13;;;;;;;5.07;4.57;;;18.10;99.90;;;;;;5000902;28;20496;-61
2023/08/01 08:34:42;;;;;;;5.43;4.47;;;18.10;99.90;;;;;;5001203;28;20562;-61
2023/08/01 08:37:10;;;;;;;5.23;4.50;;;18.10;99.90;;;;;;5002852;28;20483;-61
2023/08/01 08:39:38;;;;;;;9.00;5.77;;;18.10;99.90;;;;;;5004207;28;20926;-61
2023/08/01 08:42:07;;;;;;;5.10;4.23;;;18.10;99.90;;;;;;5003388;28;20546;-61
2023/08/01 08:44:42;;;;;;;5.37;4.57;;;18.10;99.90;;;;;;5017587;28;20509;-61
2023/08/01 08:47:12;;;;;;;6.40;5.13;;;18.20;99.90;;;;;;5014252;28;20494;-62
2023/08/01 08:49:42;;;;;;;5.30;4.90;;;18.30;99.90;;;;;;5004843;28;20551;-62
2023/08/01 08:52:11;;;;;;;5.63;5.17;;;18.30;99.90;;;;;;5004554;28;20523;-61
2023/08/01 08:54:39;;;;;;;8.17;5.67;;;18.50;99.90;;;;;;5003875;28;20539;-62
2023/08/01 08:57:08;;;;;;;5.53;5.00;;;18.60;99.90;;;;;;5002263;28;20934;-61
2023/08/01 08:59:37;;;;;;;4.93;4.50;;;18.70;99.90;;;;;;5003656;28;21051;-62
2023/08/01 09:02:05;;;;;;;6.23;5.50;;;18.80;99.90;;;;;;5002754;28;20579;-62
2023/08/01 09:04:33;;;;;;;6.87;5.10;;;18.90;99.90;;;;;;5003878;28;20860;-61
2023/08/01 09:07:07;;;;;;;5.30;4.87;;;19.00;99.90;;;;;;5003103;28;20476;-62
2023/08/01 09:09:36;;;;;;;4.87;4.30;;;18.90;99.90;;;;;;5004797;28;20524;-62
2023/08/01 09:12:05;;;;;;;4.30;3.97;;;18.70;99.90;;;;;;5000783;28;20485;-61
2023/08/01 09:14:35;;;;;;;4.33;3.90;;;18.60;99.90;;;;;;5003238;28;20473;-61
2023/08/01 09:17:09;;;;;;;4.20;3.80;;;18.50;99.90;;;;;;5001706;28;21130;-61
2023/08/01 09:19:37;;;;;;;4.60;4.20;;;18.40;99.90;;;;;;5002836;28;20494;-61
2023/08/01 09:22:12;;;;;;;4.53;4.17;;;18.20;99.90;;;;;;5001767;28;20512;-61
2023/08/01 09:24:51;;;;;;;6.17;4.00;;;18.20;99.90;;;;;;5001541;28;20575;-61
2023/08/01 09:27:22;;;;;;;5.20;4.47;;;18.10;99.90;;;;;;5003007;28;20511;-61
2023/08/01 09:29:50;;;;;;;4.17;3.77;;;18.10;99.90;;;;;;5001933;28;20520;-61
2023/08/01 09:32:18;;;;;;;5.20;4.33;;;18.00;99.90;;;;;;4998356;28;20571;-61
2023/08/01 09:34:46;;;;;;;5.27;4.77;;;18.00;99.90;;;;;;4999861;28;20472;-62
2023/08/01 09:37:16;;;;;;;4.83;4.43;;;18.00;99.90;;;;;;5000830;28;20559;-61
2023/08/01 09:39:46;;;;;;;5.30;4.03;;;18.10;99.90;;;;;;5001659;28;21159;-61
2023/08/01 09:42:14;;;;;;;4.00;3.70;;;18.20;99.90;;;;;;5002129;28;20864;-61
2023/08/01 09:44:46;;;;;;;3.90;3.60;;;18.40;99.90;;;;;;5003021;28;21070;-61
2023/08/01 09:47:15;;;;;;;3.37;3.17;;;18.50;99.90;;;;;;5000613;28;21060;-61
2023/08/01 09:49:49;;;;;;;5.17;3.30;;;18.70;99.90;;;;;;4998480;28;20583;-61
2023/08/01 09:52:27;;;;;;;3.50;3.20;;;18.80;99.90;;;;;;5000133;28;20526;-62
2023/08/01 09:54:55;;;;;;;3.53;3.23;;;19.00;99.90;;;;;;5002340;28;20468;-61
2023/08/01 09:57:27;;;;;;;3.17;2.90;;;19.20;99.90;;;;;;5003384;28;20926;-62
2023/08/01 09:59:56;;;;;;;2.90;2.60;;;19.30;99.90;;;;;;5000330;28;20482;-62
2023/08/01 10:02:26;;;;;;;3.33;3.03;;;19.30;99.90;;;;;;5001514;28;21072;-61
2023/08/01 10:04:58;;;;;;;3.43;3.13;;;19.30;99.90;;;;;;5001943;28;20498;-61
2023/08/01 10:07:30;;;;;;;4.60;2.80;;;19.20;99.90;;;;;;5000635;28;20478;-62
2023/08/01 10:10:01;;;;;;;4.90;3.17;;;19.20;99.90;;;;;;4999573;28;20506;-61
2023/08/01 10:12:30;;;;;;;3.50;2.77;;;19.20;99.90;;;;;;4998338;28;20975;-62
2023/08/01 10:14:59;;;;;;;3.73;2.87;;;19.20;99.90;;;;;;4998853;28;20567;-62
2023/08/01 10:17:28;;;;;;;3.00;2.70;;;19.30;99.90;;;;;;5001218;28;20559;-61
2023/08/01 10:19:58;;;;;;;4.07;2.53;;;19.30;99.90;;;;;;5000567;28;20492;-61
2023/08/01 10:22:28;;;;;;;3.23;2.57;;;19.40;99.90;;;;;;5000816;28;20492;-61
2023/08/01 10:24:57;;;;;;;2.93;2.60;;;19.30;99.90;;;;;;4999704;28;21101;-62
2023/08/01 10:27:25;;;;;;;3.10;2.90;;;19.30;99.90;;;;;;4999640;28;20547;-61
2023/08/01 10:30:00;;;;;;;3.00;2.70;;;19.20;99.90;;;;;;5000665;28;20559;-62
2023/08/01 10:32:35;;;;;;;3.33;3.03;;;19.20;99.90;;;;;;4997554;28;20499;-61
2023/08/01 10:35:05;;;;;;;2.40;2.27;;;19.20;99.90;;;;;;5001064;28;20498;-61
2023/08/01 10:37:46;;;;;;;4.10;2.40;;;19.20;99.90;;;;;;5001749;28;20568;-61
2023/08/01 10:40:15;;;;;;;2.20;2.00;;;19.20;99.90;;;;;;5002090;28;20956;-61
2023/08/01 10:42:44;;;;;;;2.30;1.87;;;19.20;99.90;;;;;;4997331;28;20504;-61
2023/08/01 10:45:22;;;;;;;2.47;1.90;;;19.00;99.90;;;;;;4999740;28;20556;-61
2023/08/01 10:47:50;;;;;;;2.23;2.03;;;18.90;99.90;;;;;;5002895;28;20500;-61
2023/08/01 10:50:19;;;;;;;2.37;1.93;;;18.80;99.90;;;;;;5001356;28;20503;-61
2023/08/01 10:52:51;;;;;;;1.90;1.80;;;18.80;99.90;;;;;;5000724;28;20484;-62
2023/08/01 10:55:19;;;;;;;1.73;1.63;;;18.70;99.90;;;;;;5000151;28;21043;-61
2023/08/01 10:57:49;;;;;;;1.90;1.80;;;18.70;99.90;;;;;;4997890;28;20478;-61
2023/08/01 11:00:19;;;;;;;2.27;2.17;;;18.70;99.90;;;;;;4998328;28;20959;-62
2023/08/01 11:02:51;;;;;;;2.23;2.03;;;18.70;99.90;;;;;;5001194;28;20883;-61
2023/08/01 11:05:19;;;;;;;1.97;1.87;;;18.60;99.90;;;;;;5000911;28;20504;-61
2023/08/01 11:07:56;;;;;;;2.30;2.10;;;18.50;99.90;;;;;;4998957;28;20496;-62
2023/08/01 11:10:26;;;;;;;5.50;1.47;;;18.40;99.90;;;;;;5000159;28;20495;-62
2023/08/01 11:12:55;;;;;;;4.00;1.77;;;18.20;99.90;;;;;;5001874;28;20848;-62
2023/08/01 11:15:23;;;;;;;1.63;1.50;;;17.80;99.90;;;;;;5000136;28;20931;-64
2023/08/01 11:17:53;;;;;;;2.40;1.70;;;17.40;99.90;;;;;;5003410;28;20481;-62
2023/08/01 11:20:23;;;;;;;3.27;1.70;;;17.10;99.90;;;;;;5016599;28;20493;-61
2023/08/01 11:22:53;;;;;;;1.60;1.50;;;16.80;99.90;;;;;;5010557;28;20489;-61
2023/08/01 11:25:33;;;;;;;1.80;1.70;;;16.70;99.90;;;;;;5002955;28;20488;-62
2023/08/01 11:28:04;;;;;;;2.13;1.60;;;16.60;99.90;;;;;;5001358;28;20480;-62
2023/08/01 11:30:33;;;;;;;2.10;1.83;;;16.40;99.90;;;;;;4997444;28;20499;-62
2023/08/01 11:33:02;;;;;;;2.00;1.57;;;16.30;99.90;;;;;;4996499;28;20870;-61
2023/08/01 11:35:31;;;;;;;1.70;1.53;;;16.30;99.90;;;;;;5001009;28;20472;-62
2023/08/01 11:37:59;;;;;;;1.50;1.40;;;16.30;99.90;;;;;;5002386;28;20550;-62
2023/08/01 11:40:29;;;;;;;2.20;1.70;;;16.40;99.90;;;;;;5001336;28;20515;-62
2023/08/01 11:42:58;;;;;;;1.97;1.80;;;16.40;99.90;;;;;;4996906;28;20484;-62
2023/08/01 11:45:26;;;;;;;2.60;1.47;;;16.40;99.90;;;;;;4998623;28;20488;-61
2023/08/01 11:47:54;;;;;;;1.60;1.50;;;16.60;99.90;;;;;;4999992;28;20480;-62
2023/08/01 11:50:24;;;;;;;1.50;1.37;;;16.70;99.90;;;;;;5000422;28;20504;-62
2023/08/01 11:52:52;;;;;;;2.60;1.70;;;16.70;99.90;;;;;;5001977;28;20574;-62
2023/08/01 11:55:21;;;;;;;3.30;1.77;;;16.60;99.90;;;;;;5001037;28;20500;-61
2023/08/01 11:57:55;;;;;;;1.40;1.30;;;16.60;99.90;;;;;;4999447;28;20559;-62
2023/08/01 12:00:25;;;;;;;1.93;1.40;;;16.60;99.90;;;;;;4999136;28;20499;-61
2023/08/01 12:03:03;;;;;;;1.63;1.30;;;16.80;99.90;;;;;;4999963;28;20576;-61
2023/08/01 12:05:32;;;;;;;2.67;1.50;;;16.90;99.90;;;;;;4997234;28;21218;-61
2023/08/01 12:08:10;;;;;;;2.33;1.40;;;17.10;99.90;;;;;;4997103;28;20572;-61
2023/08/01 12:10:39;;;;;;;1.50;1.40;;;17.40;99.90;;;;;;5001661;28;20494;-61
2023/08/01 12:13:20;;;;;;;3.73;1.63;;;17.70;99.90;;;;;;5000402;28;21014;-61
2023/08/01 12:15:49;;;;;;;1.27;0.90;;;18.10;99.90;;;;;;4999857;28;20475;-61
2023/08/01 12:18:24;;;;;;;2.27;1.13;;;18.40;99.90;;;;;;5000222;28;20472;-61
2023/08/01 12:21:12;;;;;;;1.40;1.10;;;18.60;99.90;;;;;;5000364;28;20472;-61
2023/08/01 12:23:41;;;;;;;1.30;1.20;;;18.70;99.90;;;;;;4999107;28;20912;-62
2023/08/01 12:26:09;;;;;;;1.20;1.10;;;18.70;99.90;;;;;;5002025;28;20603;-62
2023/08/01 12:28:38;;;;;;;1.20;1.10;;;18.60;99.90;;;;;;5001566;28;20554;-61
2023/08/01 12:31:06;;;;;;;2.23;1.20;;;18.60;99.90;;;;;;5000170;28;20646;-62
2023/08/01 12:33:35;;;;;;;1.03;1.00;;;18.70;99.90;;;;;;4996509;28;20480;-61
2023/08/01 12:36:04;;;;;;;1.27;1.07;;;18.50;99.90;;;;;;5003055;28;20473;-62
2023/08/01 12:38:32;;;;;;;1.17;0.97;;;18.50;99.90;;;;;;5003748;28;20539;-62
2023/08/01 12:41:00;;;;;;;1.43;1.30;;;18.50;99.90;;;;;;4998836;28;20500;-61
2023/08/01 12:43:28;;;;;;;1.57;1.30;;;18.40;99.90;;;;;;5006611;28;20480;-61
2023/08/01 12:45:58;;;;;;;2.03;1.57;;;18.30;99.90;;;;;;5013213;28;20498;-62
2023/08/01 12:48:26;;;;;;;1.33;1.23;;;18.10;99.90;;;;;;5012562;28;20558;-61
2023/08/01 12:50:54;;;;;;;1.70;1.50;;;18.00;99.90;;;;;;5012980;28;20580;-62